Hampton, NH (03842)

12:32 AM EDT on July 24, 2016 (GMT -0400)
Between beach and center of town | | Change Station

Elev 69 ft 42.94 °N, 70.83 °W | Updated 11 minutes ago

Mostly Cloudy
Mostly Cloudy
63.2 °F
Feels Like 63.2 °F
N
2.6
Wind Variable Wind from North

Today
High -- | Low -- °F
--% Chance of Precip.
Yesterday
High -- | Low -- °F
Precip. -- in
Pressure 29.85 in
Visibility 10.0 miles
Clouds Mostly Cloudy 25000 ft
Dew Point 62 °F
Humidity 96%
Rainfall Not available.
Snow Depth Not available.
5:26 AM 8:12 PM
Waning Gibbous, 80% visible
METAR KPSM 240358Z 29004KT 10SM BKN250 18/16 A2984 RMK AO2A SLP106 T01760158
Pressure 29.85 in
Visibility 10.0 miles
Clouds Mostly Cloudy 25000 ft
Dew Point 62 °F
Humidity 96%
Rainfall Not available.
Snow Depth Not available.
5:26 AM 8:12 PM
Waning Gibbous, 80% visible
METAR KPSM 240358Z 29004KT 10SM BKN250 18/16 A2984 RMK AO2A SLP106 T01760158

10-Day Weather Forecast

Almanac

Astronomy

Jul. 24, 2016 Rise Set
Actual Time
Civil Twilight
Nautical Twilight
Astronomical Twilight
Moon
Length of Visible Light
Length of Day
Tomorrow will be .
, % of the Moon is Illuminated

Today's Extremes

State Highs State Lows

Community

WunderPhotos

Upload Photos

1,927,030 photos uploaded!

WunderBlog® & News

Nearby

Air Quality

  Air Quality AQ Index Pollutant
Not available.

Snow Depth

Station Depth Elevation

Earthquake Activity

City Distance Mag. Time & Date
Minimum magnitude displayed is 2.5.

Coastal Water Temperatures

Place Temperature

Stations

Nearby Weather Stations

Station Location Temp. Windchill Dew Point Humidity Wind Precip. Elev Updated Type
                   

Watches & Warnings

There are currently no watches in effect.